Forester — DIUT — position and weather

sailwx.info

Track history (hours):
 
Tides and Currents Weather Stations Pressure Air Temp Water Temp Dewpoint Dewpoint Depression Visibility Wind Speed Wind Dir Waves Ship Positions

Forester

Last reported at 2016-Feb-08 16:32 UTC. Time now 2016-Feb-08 17:00 UTC.
Position N 39°59' W 010°05'.

Length 100 m; draft 6.4 m.

Type: Ship. MMSI: 211233870.

Date/timePositionNaut miles runAvg speedWind from/ knotsBaromVisibWave heightAir tempDewpointWater temp
2016-Feb-08 16:32N 39°59' W 010°05'1111.1
2016-Feb-08 15:32N 40°10' W 010°05'10 9.9
2016-Feb-08 14:32N 40°20' W 010°05'1111.0
2016-Feb-08 13:32N 40°31' W 010°05'1111.0
2016-Feb-08 12:32N 40°42' W 010°05'13 9.8
2016-Feb-08 11:14N 40°54' W 010°05'811.1
2016-Feb-08 10:32N 41°02' W 010°05'1111.4
2016-Feb-08 09:32N 41°14' W 010°05'1010.3
2016-Feb-08 08:32N 41°24' W 010°05'1111.4
2016-Feb-08 07:32N 41°35' W 010°05'1111.3
2016-Feb-08 06:32N 41°46' W 010°05'1110.7
2016-Feb-08 05:29N 41°58' W 010°05'  
2016-Feb-05 00:33N 50°26' W 001°28'1412.5
2016-Feb-04 23:29N 50°28' W 001°07'1212.7
2016-Feb-04 22:34N 50°29' W 000°49'1212.0
2016-Feb-04 21:34N 50°30' W 000°30'1211.4
2016-Feb-04 20:32N 50°32' W 000°12'1010.7
2016-Feb-04 19:33N 50°34' E 000°04'10 9.8
2016-Feb-04 18:34N 50°36' E 000°19'9 9.3
2016-Feb-04 17:34N 50°39' E 000°33'10 9.9
2016-Feb-04 16:34N 50°44' E 000°46'1110.7
2016-Feb-04 15:33N 50°51' E 001°00'1111.6
2016-Feb-04 14:33N 50°58' E 001°14'1111.3
2016-Feb-04 13:34N 51°05' E 001°28'1010.4
2016-Feb-04 12:34N 51°12' E 001°40'10 9.7
2016-Feb-04 11:34N 51°19' E 001°50'9 9.3
2016-Feb-04 10:34N 51°27' E 001°57'9 8.7
2016-Feb-04 09:33N 51°34' E 002°06'15410.0
2016-Feb-03 18:06N 53°30' E 004°52'5 9.8
2016-Feb-03 17:33N 53°32' E 005°00'10 9.5
2016-Feb-03 16:32N 53°36' E 005°16'9 8.9
2016-Feb-03 15:33N 53°38' E 005°30'8 7.9
2016-Feb-03 14:33N 53°41' E 005°42'7 7.1
2016-Feb-03 13:34N 53°43' E 005°54'7 6.9
2016-Feb-03 12:34N 53°45' E 006°05'7 7.2
2016-Feb-03 11:33N 53°48' E 006°17'8 7.8
2016-Feb-03 10:33N 53°50' E 006°29'8 8.0
2016-Feb-03 09:34N 53°52' E 006°42'8 8.2
2016-Feb-03 08:33N 53°53' E 006°56'8 8.1
2016-Feb-03 07:33N 53°56' E 007°09'8 7.5
2016-Feb-03 06:33N 53°57' E 007°22'7 6.9
2016-Feb-03 05:33N 53°59' E 007°33'6 6.3
2016-Feb-03 04:33N 54°01' E 007°43'6 5.8
2016-Feb-03 03:33N 54°01' E 007°53'6 5.6
2016-Feb-03 02:34N 54°01' E 008°02'5 5.3
2016-Feb-03 01:33N 54°01' E 008°11'7 7.0
2016-Feb-03 00:33N 53°60' E 008°23'1111.1
2016-Feb-02 23:34N 53°55' E 008°40'1212.0
2016-Feb-02 22:33N 53°51' E 008°60'6 5.7
2016-Feb-02 21:33N 53°54' E 009°09'2 1.9
2016-Feb-02 20:33N 53°55' E 009°11'19 7.9
2016-Feb-02 18:06N 54°11' E 009°29'8 5.2
2016-Feb-02 16:32N 54°17' E 009°39'8 7.9
2016-Feb-02 15:33N 54°22' E 009°49'5 5.3
2016-Feb-02 14:34N 54°21' E 009°58'6 5.9
2016-Feb-02 13:33N 54°22' E 010°08'0 0.0
2016-Feb-02 12:33N 54°22' E 010°08'0 0.0
2016-Feb-02 11:34N 54°22' E 010°08'0 0.1
2016-Feb-02 10:33N 54°22' E 010°08'1 0.6
2016-Feb-02 09:33N 54°22' E 010°09'1 1.1
2016-Feb-02 08:34N 54°23' E 010°10'0 0.1
2016-Feb-02 07:34N 54°23' E 010°10'0 0.0
2016-Feb-02 06:33N 54°23' E 010°10'0 0.0
2016-Feb-02 05:34N 54°23' E 010°10'0 0.0
2016-Feb-02 04:33N 54°23' E 010°10'0 0.0
2016-Feb-02 03:34N 54°23' E 010°10'0 0.0
2016-Feb-02 02:34N 54°23' E 010°10'0 0.2
2016-Feb-02 01:33N 54°23' E 010°11'10 9.9
2016-Feb-02 00:33N 54°31' E 010°20'1010.4
2016-Feb-01 23:33N 54°34' E 010°37'10 9.9
2016-Feb-01 22:34N 54°35' E 010°54'9 9.1
2016-Feb-01 21:34N 54°36' E 011°10'9 9.1
2016-Feb-01 20:34N 54°32' E 011°24'8 8.5
2016-Feb-01 19:34N 54°29' E 011°37'10 9.9
2016-Feb-01 18:34N 54°26' E 011°54'9 9.4
2016-Feb-01 17:33N 54°27' E 012°10'51 9.8
2016-Feb-01 12:19N 54°55' E 013°24'810.5
2016-Feb-01 11:33N 54°58' E 013°37'1010.4
2016-Feb-01 10:33N 55°01' E 013°55'1010.2
2016-Feb-01 09:33N 55°06' E 014°10'1111.1
2016-Feb-01 08:33N 55°15' E 014°22'1110.9
2016-Feb-01 07:33N 55°23' E 014°34'1110.6
2016-Feb-01 06:33N 55°30' E 014°48'1010.3
2016-Feb-01 05:33N 55°36' E 015°03'100 9.8
2016-Jan-31 19:17N 56°50' E 017°05'811.0
2016-Jan-31 18:33N 56°58' E 017°09'1110.8
2016-Jan-31 17:33N 57°07' E 017°18'1110.7
2016-Jan-31 16:34N 57°17' E 017°28'1010.4
2016-Jan-31 15:34N 57°25' E 017°38'1010.4
2016-Jan-31 14:33N 57°35' E 017°48'146 9.0
2016-Jan-30 22:22N 59°50' E 019°34'911.0
2016-Jan-30 21:32N 59°57' E 019°22'1111.2
2016-Jan-30 20:32N 60°06' E 019°09'  
Track history (hours):
 
Tides and Currents Weather Stations Pressure Air Temp Water Temp Dewpoint Dewpoint Depression Visibility Wind Speed Wind Dir Waves Ship Positions

Forester

Last reported at 2016-Feb-08 16:32 UTC. Time now 2016-Feb-08 17:00 UTC.
Position N 39°59' W 010°05'.

Length 100 m; draft 6.4 m.

Type: Ship. MMSI: 211233870.

Date/timePositionNaut miles runAvg speedWind from/ knotsBaromVisibWave heightAir tempDewpointWater temp
2016-Feb-08 16:32N 39°59' W 010°05'1111.1
2016-Feb-08 15:32N 40°10' W 010°05'10 9.9
2016-Feb-08 14:32N 40°20' W 010°05'1111.0
2016-Feb-08 13:32N 40°31' W 010°05'1111.0
2016-Feb-08 12:32N 40°42' W 010°05'13 9.8
2016-Feb-08 11:14N 40°54' W 010°05'811.1
2016-Feb-08 10:32N 41°02' W 010°05'1111.4
2016-Feb-08 09:32N 41°14' W 010°05'1010.3
2016-Feb-08 08:32N 41°24' W 010°05'1111.4
2016-Feb-08 07:32N 41°35' W 010°05'1111.3
2016-Feb-08 06:32N 41°46' W 010°05'1110.7
2016-Feb-08 05:29N 41°58' W 010°05'  
2016-Feb-05 00:33N 50°26' W 001°28'1412.5
2016-Feb-04 23:29N 50°28' W 001°07'1212.7
2016-Feb-04 22:34N 50°29' W 000°49'1212.0
2016-Feb-04 21:34N 50°30' W 000°30'1211.4
2016-Feb-04 20:32N 50°32' W 000°12'1010.7
2016-Feb-04 19:33N 50°34' E 000°04'10 9.8
2016-Feb-04 18:34N 50°36' E 000°19'9 9.3
2016-Feb-04 17:34N 50°39' E 000°33'10 9.9
2016-Feb-04 16:34N 50°44' E 000°46'1110.7
2016-Feb-04 15:33N 50°51' E 001°00'1111.6
2016-Feb-04 14:33N 50°58' E 001°14'1111.3
2016-Feb-04 13:34N 51°05' E 001°28'1010.4
2016-Feb-04 12:34N 51°12' E 001°40'10 9.7
2016-Feb-04 11:34N 51°19' E 001°50'9 9.3
2016-Feb-04 10:34N 51°27' E 001°57'9 8.7
2016-Feb-04 09:33N 51°34' E 002°06'15410.0
2016-Feb-03 18:06N 53°30' E 004°52'5 9.8
2016-Feb-03 17:33N 53°32' E 005°00'10 9.5
2016-Feb-03 16:32N 53°36' E 005°16'9 8.9
2016-Feb-03 15:33N 53°38' E 005°30'8 7.9
2016-Feb-03 14:33N 53°41' E 005°42'7 7.1
2016-Feb-03 13:34N 53°43' E 005°54'7 6.9
2016-Feb-03 12:34N 53°45' E 006°05'7 7.2
2016-Feb-03 11:33N 53°48' E 006°17'8 7.8
2016-Feb-03 10:33N 53°50' E 006°29'8 8.0
2016-Feb-03 09:34N 53°52' E 006°42'8 8.2
2016-Feb-03 08:33N 53°53' E 006°56'8 8.1
2016-Feb-03 07:33N 53°56' E 007°09'8 7.5
2016-Feb-03 06:33N 53°57' E 007°22'7 6.9
2016-Feb-03 05:33N 53°59' E 007°33'6 6.3
2016-Feb-03 04:33N 54°01' E 007°43'6 5.8
2016-Feb-03 03:33N 54°01' E 007°53'6 5.6
2016-Feb-03 02:34N 54°01' E 008°02'5 5.3
2016-Feb-03 01:33N 54°01' E 008°11'7 7.0
2016-Feb-03 00:33N 53°60' E 008°23'1111.1
2016-Feb-02 23:34N 53°55' E 008°40'1212.0
2016-Feb-02 22:33N 53°51' E 008°60'6 5.7
2016-Feb-02 21:33N 53°54' E 009°09'2 1.9
2016-Feb-02 20:33N 53°55' E 009°11'19 7.9
2016-Feb-02 18:06N 54°11' E 009°29'8 5.2
2016-Feb-02 16:32N 54°17' E 009°39'8 7.9
2016-Feb-02 15:33N 54°22' E 009°49'5 5.3
2016-Feb-02 14:34N 54°21' E 009°58'6 5.9
2016-Feb-02 13:33N 54°22' E 010°08'0 0.0
2016-Feb-02 12:33N 54°22' E 010°08'0 0.0
2016-Feb-02 11:34N 54°22' E 010°08'0 0.1
2016-Feb-02 10:33N 54°22' E 010°08'1 0.6
2016-Feb-02 09:33N 54°22' E 010°09'1 1.1
2016-Feb-02 08:34N 54°23' E 010°10'0 0.1
2016-Feb-02 07:34N 54°23' E 010°10'0 0.0
2016-Feb-02 06:33N 54°23' E 010°10'0 0.0
2016-Feb-02 05:34N 54°23' E 010°10'0 0.0
2016-Feb-02 04:33N 54°23' E 010°10'0 0.0
2016-Feb-02 03:34N 54°23' E 010°10'0 0.0
2016-Feb-02 02:34N 54°23' E 010°10'0 0.2
2016-Feb-02 01:33N 54°23' E 010°11'10 9.9
2016-Feb-02 00:33N 54°31' E 010°20'1010.4
2016-Feb-01 23:33N 54°34' E 010°37'10 9.9
2016-Feb-01 22:34N 54°35' E 010°54'9 9.1
2016-Feb-01 21:34N 54°36' E 011°10'9 9.1
2016-Feb-01 20:34N 54°32' E 011°24'8 8.5
2016-Feb-01 19:34N 54°29' E 011°37'10 9.9
2016-Feb-01 18:34N 54°26' E 011°54'9 9.4
2016-Feb-01 17:33N 54°27' E 012°10'51 9.8
2016-Feb-01 12:19N 54°55' E 013°24'810.5
2016-Feb-01 11:33N 54°58' E 013°37'1010.4
2016-Feb-01 10:33N 55°01' E 013°55'1010.2
2016-Feb-01 09:33N 55°06' E 014°10'1111.1
2016-Feb-01 08:33N 55°15' E 014°22'1110.9
2016-Feb-01 07:33N 55°23' E 014°34'1110.6
2016-Feb-01 06:33N 55°30' E 014°48'1010.3
2016-Feb-01 05:33N 55°36' E 015°03'100 9.8
2016-Jan-31 19:17N 56°50' E 017°05'811.0
2016-Jan-31 18:33N 56°58' E 017°09'1110.8
2016-Jan-31 17:33N 57°07' E 017°18'1110.7
2016-Jan-31 16:34N 57°17' E 017°28'1010.4
2016-Jan-31 15:34N 57°25' E 017°38'1010.4
2016-Jan-31 14:33N 57°35' E 017°48'146 9.0
2016-Jan-30 22:22N 59°50' E 019°34'911.0
2016-Jan-30 21:32N 59°57' E 019°22'1111.2
2016-Jan-30 20:32N 60°06' E 019°09'  

Dump ship's entire track history